Time;durP1;ratioP1;P1;durP2;ratioP2;P2;SDS_P1;SDS_P2;PMS_P1;PMS_P2;Temp;Humidity;BMP_temperature;BMP_pressure;BME280_temperature;BME280_humidity;BME280_pressure;Samples;Min_cycle;Max_cycle;Signal;HPM_P1;HPM_P2
2022/07/13 00:00:26;;;;;;;5.00;2.35;;;;;;;22.28;50.82;100467.94;5053966;28;20041;-94
2022/07/13 00:02:52;;;;;;;5.18;3.00;;;;;;;22.39;50.34;100457.31;5053190;28;20028;-93
2022/07/13 00:05:17;;;;;;;7.18;3.13;;;;;;;22.46;50.05;100459.59;5050183;28;20044;-76
2022/07/13 00:07:42;;;;;;;5.75;3.17;;;;;;;22.56;50.35;100467.56;5047916;28;20083;-77
2022/07/13 00:10:08;;;;;;;4.60;2.23;;;;;;;22.58;49.62;100486.69;5048141;28;20040;-77
2022/07/13 00:12:33;;;;;;;5.68;2.95;;;;;;;22.63;50.42;100484.56;5048116;28;20060;-77
2022/07/13 00:14:58;;;;;;;6.60;3.80;;;;;;;22.41;55.23;100482.00;5048201;28;20128;-82
2022/07/13 00:17:24;;;;;;;7.87;4.53;;;;;;;21.91;58.10;100488.50;5050546;28;20265;-82
2022/07/13 00:19:49;;;;;;;7.53;3.70;;;;;;;22.05;57.49;100468.09;5051951;28;20282;-85
2022/07/13 00:22:15;;;;;;;5.50;3.65;;;;;;;22.02;58.21;100477.91;5053469;28;20300;-85
2022/07/13 00:24:40;;;;;;;4.20;3.10;;;;;;;21.96;59.14;100479.22;5052503;28;20559;-76
2022/07/13 00:27:05;;;;;;;5.97;4.13;;;;;;;21.88;59.29;100466.97;5047199;28;20048;-77
2022/07/13 00:29:31;;;;;;;5.83;3.53;;;;;;;21.83;58.36;100463.53;5048147;28;20079;-94
2022/07/13 00:31:56;;;;;;;6.33;3.50;;;;;;;21.88;57.85;100460.59;5053346;28;20254;-93
2022/07/13 00:34:21;;;;;;;4.53;2.80;;;;;;;21.93;57.56;100468.75;5053750;28;20037;-77
2022/07/13 00:36:46;;;;;;;7.93;3.63;;;;;;;21.96;56.81;100467.28;5046997;28;20029;-76
2022/07/13 00:39:12;;;;;;;6.97;2.17;;;;;;;22.06;55.83;100468.94;5047305;28;20313;-76
2022/07/13 00:41:47;;;;;;;5.82;3.25;;;;;;;22.15;55.11;100469.75;5052147;28;20319;-94
2022/07/13 00:44:14;;;;;;;6.43;2.75;;;;;;;22.21;53.80;100462.09;5053242;28;20051;-93
2022/07/13 00:46:43;;;;;;;7.03;3.45;;;;;;;22.22;52.66;100469.25;5052780;28;20037;-93
2022/07/13 00:49:10;;;;;;;5.68;3.00;;;;;;;22.30;53.37;100487.88;5052162;28;20545;-93
2022/07/13 00:51:37;;;;;;;6.80;3.42;;;;;;;22.31;53.43;100494.25;5052598;28;20025;-86
2022/07/13 00:54:03;;;;;;;21.65;4.43;;;;;;;22.39;56.08;100496.22;5053111;28;20025;-84
2022/07/13 00:56:29;;;;;;;14.48;4.60;;;;;;;22.22;60.77;100497.84;5047591;28;20031;-78
2022/07/13 00:58:57;;;;;;;6.72;3.78;;;;;;;22.10;62.03;100462.41;5047508;28;20037;-78
2022/07/13 01:01:22;;;;;;;10.82;4.53;;;;;;;22.04;60.77;100461.75;5048093;28;20025;-77
2022/07/13 01:03:47;;;;;;;9.77;3.90;;;;;;;21.85;63.73;100461.25;5046908;28;20033;-77
2022/07/13 01:06:13;;;;;;;8.23;4.40;;;;;;;21.58;64.60;100456.44;5048818;28;20262;-88
2022/07/13 01:08:38;;;;;;;5.97;4.47;;;;;;;21.55;64.59;100437.69;5052794;28;20036;-88
2022/07/13 01:11:04;;;;;;;8.95;4.18;;;;;;;21.54;64.97;100438.81;5049358;28;20594;-88
2022/07/13 01:13:29;;;;;;;6.47;3.80;;;;;;;21.43;66.67;100445.81;5049060;28;20611;-88
2022/07/13 01:15:54;;;;;;;7.88;4.30;;;;;;;21.29;67.68;100455.09;5048897;28;20033;-77
2022/07/13 01:18:21;;;;;;;6.15;3.65;;;;;;;21.17;66.89;100455.69;5050438;28;20099;-77
2022/07/13 01:20:46;;;;;;;18.60;4.43;;;;;;;21.19;68.87;100447.88;5050608;28;20119;-79
2022/07/13 01:23:14;;;;;;;6.68;4.22;;;;;;;21.03;70.10;100454.97;5051151;28;20112;-78
2022/07/13 01:25:41;;;;;;;11.30;5.22;;;;;;;20.96;71.24;100447.09;5050946;28;20036;-78
2022/07/13 01:28:06;;;;;;;6.82;4.80;;;;;;;20.77;72.76;100450.91;5050959;28;20049;-78
2022/07/13 01:30:31;;;;;;;8.02;5.00;;;;;;;20.73;72.86;100458.22;5051709;28;20121;-85
2022/07/13 01:32:57;;;;;;;9.50;5.03;;;;;;;20.78;70.41;100455.31;5055629;28;20040;-85
2022/07/13 01:35:23;;;;;;;6.95;5.15;;;;;;;20.78;71.26;100452.53;5056317;28;20039;-78
2022/07/13 01:37:50;;;;;;;7.20;4.57;;;;;;;20.73;70.73;100452.66;5050568;28;20021;-78
2022/07/13 01:40:15;;;;;;;9.23;5.40;;;;;;;20.72;71.06;100448.28;5050319;28;20037;-77
2022/07/13 01:42:45;;;;;;;9.60;6.28;;;;;;;20.67;71.22;100443.69;5050868;28;20033;-78
2022/07/13 01:45:13;;;;;;;8.25;5.88;;;;;;;20.65;70.33;100440.41;5049291;28;20706;-78
2022/07/13 01:47:48;;;;;;;10.88;3.60;;;;;;;20.72;68.95;100443.56;5050917;28;20041;-77
2022/07/13 01:50:15;;;;;;;13.30;4.80;;;;;;;20.60;70.13;100449.69;5050362;28;20047;-77
2022/07/13 01:52:41;;;;;;;8.80;5.40;;;;;;;20.49;71.58;100448.28;5050610;28;20498;-77
2022/07/13 01:55:09;;;;;;;10.55;4.85;;;;;;;20.44;72.01;100440.97;5049431;28;20035;-77
2022/07/13 01:57:35;;;;;;;8.38;4.50;;;;;;;20.40;70.71;100435.22;5050754;28;20475;-78
2022/07/13 02:00:12;;;;;;;8.68;4.45;;;;;;;20.48;69.36;100447.47;5050506;28;20118;-78
2022/07/13 02:02:38;;;;;;;5.78;3.92;;;;;;;20.52;70.92;100436.59;5050067;28;20033;-78
2022/07/13 02:05:03;;;;;;;8.13;4.95;;;;;;;20.54;70.74;100428.78;5050103;28;20036;-78
2022/07/13 02:07:29;;;;;;;12.27;5.57;;;;;;;20.62;68.82;100418.91;5053680;28;20039;-85
2022/07/13 02:09:54;;;;;;;10.50;6.65;;;;;;;20.67;70.24;100423.47;5055850;28;20070;-85
2022/07/13 02:12:19;;;;;;;12.50;6.80;;;;;;;20.63;71.84;100415.81;5056005;28;20497;-95
2022/07/13 02:14:46;;;;;;;8.95;6.57;;;;;;;20.57;72.46;100406.00;5055532;28;20262;-95
2022/07/13 02:17:12;;;;;;;9.07;6.57;;;;;;;20.51;72.92;100410.03;5072176;28;20029;-87
2022/07/13 02:19:37;;;;;;;7.47;5.00;;;;;;;20.50;72.31;100413.94;5075432;28;20047;-88
2022/07/13 02:22:02;;;;;;;12.48;6.30;;;;;;;20.53;72.57;100407.75;5073777;28;20036;-80
2022/07/13 02:24:27;;;;;;;8.63;5.97;;;;;;;20.53;71.27;100405.00;5071197;28;20036;-81
2022/07/13 02:26:53;;;;;;;9.80;5.13;;;;;;;20.46;71.92;100399.09;5056901;28;20037;-89
2022/07/13 02:29:18;;;;;;;11.20;5.33;;;;;;;20.31;73.34;100398.34;5054688;28;20289;-88
2022/07/13 02:31:43;;;;;;;15.15;6.05;;;;;;;20.33;72.70;100409.94;5052483;28;20261;-77
2022/07/13 02:34:09;;;;;;;12.43;4.47;;;;;;;20.29;71.59;100406.97;5049653;28;20028;-77
2022/07/13 02:36:34;;;;;;;8.80;5.23;;;;;;;20.38;71.02;100398.72;5051453;28;20384;-89
2022/07/13 02:38:59;;;;;;;13.40;4.85;;;;;;;20.45;69.72;100405.75;5055547;28;20270;-89
2022/07/13 02:41:25;;;;;;;28.30;7.47;;;;;;;20.54;69.64;100403.88;5055366;28;20044;-85
2022/07/13 02:43:50;;;;;;;8.98;4.60;;;;;;;20.56;69.78;100392.47;5054748;28;20033;-85
2022/07/13 02:46:15;;;;;;;8.75;4.53;;;;;;;20.61;70.14;100392.31;5054116;28;20037;-96
2022/07/13 02:48:41;;;;;;;6.77;4.67;;;;;;;20.71;69.95;100383.75;5055292;28;20033;-96
2022/07/13 02:51:07;;;;;;;7.78;5.07;;;;;;;20.71;69.70;100375.44;5054489;28;20744;-81
2022/07/13 02:53:32;;;;;;;7.07;3.90;;;;;;;20.83;68.23;100385.09;5052089;28;20036;-81
2022/07/13 02:55:58;;;;;;;6.87;4.63;;;;;;;20.76;68.75;100374.47;5050664;28;20606;-76
2022/07/13 02:58:24;;;;;;;7.63;4.30;;;;;;;20.77;69.61;100373.31;5047673;28;20289;-77
2022/07/13 03:00:49;;;;;;;9.30;4.85;;;;;;;20.77;68.69;100376.09;5049920;28;20431;-85
2022/07/13 03:03:15;;;;;;;6.25;4.30;;;;;;;20.74;68.06;100376.75;5054563;28;20032;-85
2022/07/13 03:05:40;;;;;;;6.70;4.77;;;;;;;20.73;67.79;100380.63;5053799;28;20036;-76
2022/07/13 03:08:05;;;;;;;13.82;7.63;;;;;;;20.71;69.53;100388.47;5048565;28;20029;-77
2022/07/13 03:10:31;;;;;;;7.63;4.17;;;;;;;20.69;68.69;100391.56;5049315;28;20021;-77
2022/07/13 03:12:56;;;;;;;8.32;4.22;;;;;;;20.70;68.20;100375.75;5048962;28;20246;-77
2022/07/13 03:15:22;;;;;;;7.00;4.53;;;;;;;20.78;68.89;100380.53;5048436;28;20086;-80
2022/07/13 03:17:47;;;;;;;10.03;4.17;;;;;;;20.84;66.79;100381.19;5049055;28;20032;-77
2022/07/13 03:20:12;;;;;;;6.78;4.05;;;;;;;20.87;66.22;100373.03;5049389;28;20025;-79
2022/07/13 03:22:38;;;;;;;8.30;4.70;;;;;;;20.88;66.42;100360.03;5049168;28;20036;-77
2022/07/13 03:25:04;;;;;;;8.07;4.28;;;;;;;20.87;65.75;100359.19;5048290;28;20449;-76
2022/07/13 03:27:29;;;;;;;7.03;4.22;;;;;;;20.91;67.04;100364.09;5053233;28;20102;-94
2022/07/13 03:29:55;;;;;;;6.60;4.33;;;;;;;20.86;66.94;100360.34;5054061;28;20021;-95
2022/07/13 03:32:21;;;;;;;14.80;5.75;;;;;;;20.91;66.47;100353.03;5051644;28;20265;-80
2022/07/13 03:34:46;;;;;;;8.82;5.03;;;;;;;20.88;67.29;100358.06;5051140;28;20037;-81
2022/07/13 03:37:12;;;;;;;10.27;5.57;;;;;;;20.89;65.52;100350.56;5048702;28;20029;-77
2022/07/13 03:39:38;;;;;;;11.63;4.70;;;;;;;20.96;65.49;100345.38;5047559;28;20025;-77
2022/07/13 03:42:04;;;;;;;6.53;4.18;;;;;;;20.99;64.53;100346.72;5052290;28;20151;-85
2022/07/13 03:44:29;;;;;;;14.07;4.80;;;;;;;21.05;64.63;100347.38;5053774;28;20084;-85
2022/07/13 03:46:54;;;;;;;8.20;5.70;;;;;;;21.02;64.76;100348.84;5049914;28;20260;-76
2022/07/13 03:49:19;;;;;;;8.53;4.50;;;;;;;20.91;64.97;100353.03;5048273;28;20039;-77
2022/07/13 03:51:46;;;;;;;7.67;4.10;;;;;;;20.84;65.04;100347.94;5051641;28;20037;-89
2022/07/13 03:54:12;;;;;;;6.32;3.85;;;;;;;20.93;67.19;100345.22;5053707;28;20598;-90
2022/07/13 03:56:37;;;;;;;6.07;3.70;;;;;;;21.02;65.47;100336.94;5053268;28;20036;-95
2022/07/13 03:59:02;;;;;;;5.20;3.63;;;;;;;21.09;62.85;100337.28;5053040;28;20025;-93
2022/07/13 04:01:27;;;;;;;6.13;3.77;;;;;;;21.16;62.90;100334.03;5050198;28;20065;-78
2022/07/13 04:03:53;;;;;;;5.30;3.10;;;;;;;21.22;61.96;100333.56;5049046;28;20431;-78
2022/07/13 04:06:18;;;;;;;5.47;3.28;;;;;;;21.36;62.26;100331.78;5048713;28;20268;-83
2022/07/13 04:08:43;;;;;;;4.85;2.97;;;;;;;21.37;61.52;100330.63;5048411;28;20029;-81
2022/07/13 04:11:09;;;;;;;6.00;3.10;;;;;;;21.36;60.90;100331.78;5049449;28;20028;-81
2022/07/13 04:13:34;;;;;;;5.73;3.47;;;;;;;21.44;60.90;100331.78;5050455;28;20297;-81
2022/07/13 04:15:59;;;;;;;5.18;3.13;;;;;;;21.45;59.81;100335.38;5051347;28;20029;-91
2022/07/13 04:18:26;;;;;;;6.73;3.13;;;;;;;21.52;59.49;100332.91;5050766;28;20029;-91
2022/07/13 04:20:51;;;;;;;4.97;2.90;;;;;;;21.46;58.85;100321.19;5050166;28;20250;-77
2022/07/13 04:23:16;;;;;;;6.55;3.10;;;;;;;21.52;59.41;100321.03;5047404;28;20032;-77
2022/07/13 04:25:42;;;;;;;4.47;2.90;;;;;;;21.63;59.28;100321.50;5048608;28;20615;-91
2022/07/13 04:28:07;;;;;;;5.10;3.03;;;;;;;21.64;58.26;100318.41;5054102;28;20049;-91
2022/07/13 04:30:32;;;;;;;3.37;2.27;;;;;;;21.60;58.69;100330.50;5053299;28;20033;-76
2022/07/13 04:32:57;;;;;;;6.03;3.40;;;;;;;21.63;57.89;100327.06;5047924;28;20017;-77
2022/07/13 04:35:23;;;;;;;4.95;3.00;;;;;;;21.67;57.39;100320.53;5047551;28;20032;-94
2022/07/13 04:37:48;;;;;;;3.88;1.90;;;;;;;21.74;57.04;100319.22;5053014;28;20131;-93
2022/07/13 04:40:13;;;;;;;4.93;2.60;;;;;;;21.68;55.72;100316.59;5053197;28;20111;-93
2022/07/13 04:42:39;;;;;;;7.78;3.03;;;;;;;21.71;56.00;100309.59;5053248;28;20025;-94
2022/07/13 04:45:05;;;;;;;3.73;1.97;;;;;;;21.66;55.36;100304.22;5052724;28;20033;-93
2022/07/13 04:47:30;;;;;;;2.50;1.83;;;;;;;21.75;55.08;100304.19;5071611;28;20991;-92
2022/07/13 04:49:55;;;;;;;5.90;2.20;;;;;;;21.79;54.40;100299.63;5072665;28;20032;-92
2022/07/13 04:52:21;;;;;;;3.07;1.73;;;;;;;21.83;53.83;100303.41;5076554;28;20024;-92
2022/07/13 04:54:46;;;;;;;4.80;2.22;;;;;;;21.90;54.02;100298.19;5076709;28;20265;-92
2022/07/13 04:57:12;;;;;;;3.97;2.35;;;;;;;21.98;53.42;100296.53;5057096;28;20032;-85
2022/07/13 04:59:37;;;;;;;7.00;2.30;;;;;;;22.09;52.97;100291.44;5056115;28;20025;-84
2022/07/13 05:02:02;;;;;;;7.07;2.10;;;;;;;22.24;53.38;100295.63;5057034;28;20430;-93
2022/07/13 05:04:27;;;;;;;3.83;1.93;;;;;;;22.31;52.17;100297.91;5057079;28;20262;-94
2022/07/13 05:06:53;;;;;;;3.30;1.87;;;;;;;22.41;53.04;100293.97;5056099;28;20648;-85
2022/07/13 05:09:18;;;;;;;3.60;1.80;;;;;;;22.45;52.77;100289.38;5055880;28;20029;-85
2022/07/13 05:11:43;;;;;;;4.10;2.20;;;;;;;22.54;52.28;100291.28;5052992;28;20258;-76
2022/07/13 05:14:08;;;;;;;3.10;1.65;;;;;;;22.49;52.48;100287.56;5050561;28;20396;-76
2022/07/13 05:16:34;;;;;;;5.77;1.93;;;;;;;22.57;52.28;100285.06;5053592;28;20750;-93
2022/07/13 05:18:59;;;;;;;5.65;1.92;;;;;;;22.58;52.21;100295.00;5055729;28;20029;-93
2022/07/13 05:21:24;;;;;;;6.60;2.23;;;;;;;22.60;52.31;100292.72;5053261;28;20033;-79
2022/07/13 05:23:50;;;;;;;3.57;2.43;;;;;;;22.54;52.19;100294.06;5051649;28;20257;-79
2022/07/13 05:26:15;;;;;;;2.83;1.53;;;;;;;22.48;52.05;100272.03;5052985;28;20476;-85
2022/07/13 05:28:41;;;;;;;6.93;2.53;;;;;;;22.38;53.54;100270.44;5055561;28;20274;-85
2022/07/13 05:31:08;;;;;;;4.35;2.55;;;;;;;22.48;52.84;100272.03;5054940;28;20057;-78
2022/07/13 05:33:33;;;;;;;3.08;1.80;;;;;;;22.49;52.17;100273.66;5051325;28;20388;-77
2022/07/13 05:36:04;;;;;;;4.97;1.87;;;;;;;22.34;51.89;100276.97;5050214;28;20025;-78
2022/07/13 05:38:29;;;;;;;2.35;1.52;;;;;;;22.45;51.80;100272.69;5050202;28;20262;-78
2022/07/13 05:40:54;;;;;;;3.40;2.20;;;;;;;22.47;51.27;100262.06;5051838;28;20031;-92
2022/07/13 05:43:20;;;;;;;2.92;1.60;;;;;;;22.58;51.31;100270.00;5053585;28;20027;-92
2022/07/13 05:45:45;;;;;;;4.07;2.17;;;;;;;22.67;51.25;100276.38;5060477;28;20036;-92
2022/07/13 05:48:10;;;;;;;3.77;1.60;;;;;;;22.76;51.08;100272.75;5076470;28;20036;-92
2022/07/13 05:50:36;;;;;;;2.77;1.33;;;;;;;22.87;51.03;100276.75;5076340;28;20078;-85
2022/07/13 05:53:01;;;;;;;2.93;1.63;;;;;;;22.91;50.78;100283.25;5076242;28;20029;-85
2022/07/13 05:55:26;;;;;;;2.50;1.47;;;;;;;22.89;51.19;100285.56;5070254;28;20351;-79
2022/07/13 05:57:51;;;;;;;4.30;2.33;;;;;;;22.90;51.48;100278.88;5050381;28;20040;-80
2022/07/13 06:00:17;;;;;;;4.77;1.40;;;;;;;22.88;51.07;100270.06;5050620;28;21121;-79
2022/07/13 06:02:42;;;;;;;3.07;1.50;;;;;;;22.89;51.19;100276.41;5050007;28;20063;-79
2022/07/13 06:05:08;;;;;;;3.15;1.83;;;;;;;22.88;51.27;100278.38;5050505;28;20254;-79
2022/07/13 06:07:34;;;;;;;4.57;1.90;;;;;;;22.94;51.23;100274.22;5050584;28;20052;-77
2022/07/13 06:10:01;;;;;;;3.35;1.83;;;;;;;22.91;51.24;100274.91;5050027;28;20048;-77
2022/07/13 06:12:27;;;;;;;6.35;2.00;;;;;;;22.94;51.29;100267.88;5049972;28;20364;-77
2022/07/13 06:14:52;;;;;;;4.78;2.28;;;;;;;22.89;51.23;100271.66;5049917;28;20047;-76
2022/07/13 06:17:18;;;;;;;3.42;1.90;;;;;;;22.95;51.58;100267.53;5047513;28;20060;-79
2022/07/13 06:19:43;;;;;;;3.17;1.45;;;;;;;22.95;51.44;100263.94;5050062;28;20170;-79
2022/07/13 06:22:08;;;;;;;3.73;1.87;;;;;;;22.99;51.06;100273.22;5049824;28;20040;-79
2022/07/13 06:24:34;;;;;;;6.27;2.07;;;;;;;23.07;51.65;100268.75;5048636;28;20709;-79
2022/07/13 06:26:59;;;;;;;5.00;2.47;;;;;;;23.02;50.49;100274.53;5049569;28;20044;-80
2022/07/13 06:29:24;;;;;;;3.37;1.80;;;;;;;23.10;51.08;100268.09;5049366;28;20144;-78
2022/07/13 06:31:50;;;;;;;3.05;1.65;;;;;;;23.18;50.99;100266.41;5050140;28;20025;-77
2022/07/13 06:34:15;;;;;;;3.53;1.43;;;;;;;23.15;50.22;100267.06;5049665;28;20041;-77
2022/07/13 06:36:40;;;;;;;4.78;2.05;;;;;;;23.32;50.18;100268.91;5049274;28;20037;-82
2022/07/13 06:39:06;;;;;;;3.87;1.70;;;;;;;23.48;49.13;100262.75;5049988;28;20483;-82
2022/07/13 06:41:31;;;;;;;2.95;2.15;;;;;;;23.73;48.81;100260.88;5049665;28;20257;-82
2022/07/13 06:43:56;;;;;;;3.60;1.90;;;;;;;23.84;48.72;100266.81;5048397;28;20538;-82
2022/07/13 06:46:23;;;;;;;3.10;1.65;;;;;;;24.01;48.72;100254.69;5050136;28;20064;-85
2022/07/13 06:48:48;;;;;;;5.68;1.92;;;;;;;24.07;48.88;100254.44;5050810;28;20044;-85
2022/07/13 06:51:14;;;;;;;3.88;1.95;;;;;;;24.19;48.84;100267.56;5049890;28;20537;-77
2022/07/13 06:53:39;;;;;;;4.25;2.05;;;;;;;24.26;48.25;100256.72;5049202;28;20139;-77
2022/07/13 06:56:04;;;;;;;3.60;1.80;;;;;;;24.45;48.43;100255.34;5049124;28;20052;-93
2022/07/13 06:58:30;;;;;;;4.65;1.92;;;;;;;24.46;47.50;100262.53;5051562;28;20025;-94
2022/07/13 07:00:55;;;;;;;2.77;1.33;;;;;;;24.51;46.54;100267.84;5049965;28;20116;-77
2022/07/13 07:03:20;;;;;;;4.93;2.47;;;;;;;24.56;47.32;100273.22;5048158;28;20254;-77
2022/07/13 07:05:46;;;;;;;10.40;1.77;;;;;;;24.56;46.92;100267.63;5048159;28;20029;-79
2022/07/13 07:08:11;;;;;;;3.80;1.88;;;;;;;24.52;46.57;100266.72;5048169;28;20025;-79
2022/07/13 07:10:37;;;;;;;2.73;1.83;;;;;;;24.43;46.37;100264.03;5048880;28;20465;-76
2022/07/13 07:13:03;;;;;;;3.55;1.80;;;;;;;24.58;44.78;100278.44;5046595;28;20663;-77
2022/07/13 07:15:28;;;;;;;2.58;1.20;;;;;;;24.71;45.37;100279.25;5048202;28;20037;-78
2022/07/13 07:17:53;;;;;;;11.48;2.08;;;;;;;24.66;43.34;100273.88;5047802;28;20033;-77
2022/07/13 07:20:20;;;;;;;4.17;1.87;;;;;;;24.68;42.85;100266.81;5046605;28;20033;-77
2022/07/13 07:22:46;;;;;;;53.95;5.85;;;;;;;24.78;42.90;100262.75;5049877;28;20476;-91
2022/07/13 07:25:13;;;;;;;6.60;2.47;;;;;;;24.86;44.05;100257.38;5049894;28;20027;-91
2022/07/13 07:27:40;;;;;;;6.35;1.42;;;;;;;24.92;44.33;100273.50;5050500;28;20081;-88
2022/07/13 07:30:06;;;;;;;4.10;1.83;;;;;;;24.95;44.42;100263.66;5050849;28;20029;-85
2022/07/13 07:32:31;;;;;;;2.25;1.52;;;;;;;24.95;44.38;100258.06;5050660;28;20057;-85
2022/07/13 07:34:56;;;;;;;10.18;3.17;;;;;;;24.90;44.13;100255.50;5050030;28;20037;-84
2022/07/13 07:37:22;;;;;;;6.43;1.55;;;;;;;24.93;43.26;100250.06;5048594;28;20044;-80
2022/07/13 07:39:49;;;;;;;9.52;1.98;;;;;;;25.05;43.93;100254.81;5043174;28;20064;-78
2022/07/13 07:42:14;;;;;;;3.13;1.75;;;;;;;25.00;43.51;100260.63;5046821;28;20083;-78
2022/07/13 07:44:39;;;;;;;4.53;1.83;;;;;;;24.93;43.30;100257.59;5045897;28;20048;-78
2022/07/13 07:47:05;;;;;;;8.10;1.70;;;;;;;24.80;43.70;100251.22;5040271;28;20079;-85
2022/07/13 07:49:30;;;;;;;3.40;1.67;;;;;;;24.83;43.74;100248.56;5047435;28;20313;-86
2022/07/13 07:51:55;;;;;;;5.05;1.75;;;;;;;24.90;43.60;100241.56;5052252;28;20258;-86
2022/07/13 07:54:21;;;;;;;2.95;1.52;;;;;;;25.04;44.01;100250.41;5053068;28;20052;-86
2022/07/13 07:56:46;;;;;;;5.68;1.63;;;;;;;25.12;43.77;100247.84;5049886;28;20131;-78
2022/07/13 07:59:12;;;;;;;4.47;2.33;;;;;;;25.29;43.69;100239.19;5047275;28;20041;-78
2022/07/13 08:01:37;;;;;;;5.47;2.42;;;;;;;25.56;42.69;100243.47;5045961;28;20336;-78
2022/07/13 08:04:03;;;;;;;4.07;1.77;;;;;;;25.68;41.79;100246.25;5047757;28;20041;-78
2022/07/13 08:06:28;;;;;;;3.78;1.67;;;;;;;25.83;42.09;100247.41;5049397;28;20115;-83
2022/07/13 08:08:53;;;;;;;4.03;1.80;;;;;;;25.94;42.04;100242.13;5052489;28;20131;-83
2022/07/13 08:11:20;;;;;;;3.20;1.70;;;;;;;26.00;41.53;100245.47;5053580;28;20359;-93
2022/07/13 08:13:46;;;;;;;7.10;2.25;;;;;;;25.87;41.88;100253.13;5053130;28;20103;-93
2022/07/13 08:16:12;;;;;;;2.67;1.50;;;;;;;26.08;41.97;100252.03;5050993;28;20035;-78
2022/07/13 08:18:37;;;;;;;5.32;1.67;;;;;;;26.13;41.85;100246.19;5046887;28;20028;-77
2022/07/13 08:21:03;;;;;;;4.78;2.00;;;;;;;26.17;40.93;100249.91;5046218;28;20112;-92
2022/07/13 08:26:13;;;;;;;6.97;2.00;;;;;;;26.22;41.01;100244.03;5050650;28;20043;-77
2022/07/13 08:28:38;;;;;;;3.65;1.83;;;;;;;26.25;40.75;100250.88;5047286;28;20124;-77
2022/07/13 08:31:05;;;;;;;3.63;2.10;;;;;;;26.35;40.53;100249.53;5048914;28;20270;-92
2022/07/13 08:39:14;;;;;;;5.10;2.13;;;;;;;26.23;40.43;100242.06;5043365;28;19924;-78
2022/07/13 08:41:40;;;;;;;5.43;1.53;;;;;;;26.22;40.35;100241.22;5046738;28;20468;-79
2022/07/13 08:44:06;;;;;;;5.57;1.60;;;;;;;26.40;40.61;100240.09;5047465;28;20265;-80
2022/07/13 08:46:32;;;;;;;4.95;2.20;;;;;;;26.56;40.61;100249.25;5057923;28;20040;-86
2022/07/13 08:48:57;;;;;;;3.35;1.80;;;;;;;26.53;40.62;100246.38;5051567;28;20024;-86
2022/07/13 08:51:24;;;;;;;5.68;1.77;;;;;;;26.57;40.58;100245.28;5052493;28;20858;-84
2022/07/13 08:53:56;;;;;;;5.60;2.20;;;;;;;26.66;40.20;100236.72;5051501;28;20025;-85
2022/07/13 08:56:22;;;;;;;3.97;2.20;;;;;;;26.76;39.65;100246.53;5051827;28;20036;-86
2022/07/13 08:58:48;;;;;;;6.40;2.20;;;;;;;26.78;39.65;100234.97;5053075;28;20024;-87
2022/07/13 09:01:14;;;;;;;2.53;1.42;;;;;;;26.79;40.34;100236.56;5050911;28;20052;-78
2022/07/13 09:03:40;;;;;;;7.72;2.20;;;;;;;26.77;40.14;100236.94;5046795;28;20435;-90
2022/07/13 09:06:06;;;;;;;5.85;2.67;;;;;;;26.86;40.81;100233.13;5049016;28;20035;-87
2022/07/13 09:08:40;;;;;;;5.88;1.92;;;;;;;26.97;40.58;100236.97;5052538;28;20033;-87
2022/07/13 09:11:06;;;;;;;6.32;2.17;;;;;;;27.05;40.76;100230.34;5049796;28;20450;-78
2022/07/13 09:13:42;;;;;;;7.47;1.88;;;;;;;27.44;39.93;100233.56;5046115;28;20021;-77
2022/07/13 09:16:20;;;;;;;16.92;3.28;;;;;;;27.66;39.31;100222.78;5048349;28;20036;-91
2022/07/13 09:18:48;;;;;;;50.97;5.85;;;;;;;27.79;40.08;100229.00;5052736;28;20031;-92
2022/07/13 09:21:15;;;;;;;3.60;1.92;;;;;;;27.51;38.84;100223.31;5053025;28;20529;-95
2022/07/13 09:23:40;;;;;;;6.13;2.05;;;;;;;27.60;39.10;100225.84;5052472;28;20033;-96
2022/07/13 09:26:07;;;;;;;10.50;1.80;;;;;;;27.81;38.82;100227.47;5051146;28;20786;-88
2022/07/13 09:28:46;;;;;;;8.02;2.40;;;;;;;27.91;38.54;100216.81;5051397;28;20048;-87
2022/07/13 09:31:12;;;;;;;9.20;2.53;;;;;;;28.04;38.41;100220.25;5050407;28;20031;-79
2022/07/13 09:33:39;;;;;;;5.90;2.03;;;;;;;28.01;38.57;100215.41;5047897;28;20031;-81
2022/07/13 09:36:16;;;;;;;7.93;2.38;;;;;;;27.87;39.16;100229.97;5046357;28;20054;-77
2022/07/13 09:38:44;;;;;;;8.05;2.13;;;;;;;27.70;38.72;100223.66;5047756;28;20041;-77
2022/07/13 09:41:16;;;;;;;4.55;1.98;;;;;;;27.57;38.97;100229.41;5041299;28;20659;-78
2022/07/13 09:46:56;;;;;;;4.90;2.22;;;;;;;27.93;39.22;100231.25;5051234;28;20055;-91
2022/07/13 09:49:32;;;;;;;5.68;2.72;;;;;;;27.97;38.32;100221.75;5044069;28;20040;-95
2022/07/13 09:51:58;;;;;;;6.70;2.05;;;;;;;28.06;38.26;100227.09;5036667;28;20040;-78
2022/07/13 09:54:32;;;;;;;6.75;2.70;;;;;;;28.04;38.08;100223.88;5050693;28;20056;-78
2022/07/13 09:57:00;;;;;;;4.55;2.17;;;;;;;28.19;37.92;100226.91;5050810;28;20037;-80
2022/07/13 09:59:28;;;;;;;6.53;2.92;;;;;;;28.45;38.01;100233.75;5051561;28;20174;-80
2022/07/13 10:01:54;;;;;;;5.00;1.73;;;;;;;28.40;37.69;100236.84;5050970;28;20479;-78
2022/07/13 10:04:21;;;;;;;8.10;2.67;;;;;;;28.39;37.23;100235.25;5050171;28;20047;-78
2022/07/13 10:06:46;;;;;;;6.72;2.25;;;;;;;28.36;37.54;100233.16;5050597;28;20079;-78
2022/07/13 10:09:12;;;;;;;20.02;2.83;;;;;;;28.16;39.65;100234.06;5050648;28;20119;-78
2022/07/13 10:11:37;;;;;;;5.18;2.58;;;;;;;27.23;40.72;100238.34;5050768;28;20472;-77
2022/07/13 10:14:04;;;;;;;8.13;2.55;;;;;;;27.11;42.02;100233.72;5050554;28;20452;-78
2022/07/13 10:16:31;;;;;;;32.05;4.22;;;;;;;27.24;41.32;100225.97;5050189;28;20029;-79
2022/07/13 10:19:03;;;;;;;8.15;2.70;;;;;;;27.43;40.15;100235.53;5050460;28;20079;-78
2022/07/13 10:22:00;;;;;;;5.03;1.90;;;;;;;27.74;39.81;100235.75;5051791;28;20530;-95
2022/07/13 10:24:25;;;;;;;6.07;2.17;;;;;;;27.48;40.34;100240.03;5055515;28;20472;-95
2022/07/13 10:26:51;;;;;;;6.95;2.15;;;;;;;27.23;40.61;100245.94;5046314;28;20033;-78
2022/07/13 10:29:16;;;;;;;4.28;2.47;;;;;;;27.07;40.49;100244.03;5041120;28;20095;-78
2022/07/13 10:31:43;;;;;;;4.53;1.90;;;;;;;27.38;39.88;100239.44;5050408;28;20035;-79
2022/07/13 10:34:12;;;;;;;6.70;2.05;;;;;;;27.06;41.22;100236.75;5050298;28;20056;-78
2022/07/13 10:36:57;;;;;;;15.43;3.00;;;;;;;27.10;41.68;100243.28;5049517;28;20075;-77
2022/07/13 10:39:28;;;;;;;6.10;2.28;;;;;;;27.48;40.58;100245.63;5049604;28;20125;-78
2022/07/13 10:42:07;;;;;;;5.75;1.98;;;;;;;27.44;40.67;100244.75;5053015;28;20477;-91
2022/07/13 10:44:33;;;;;;;3.17;1.63;;;;;;;27.41;40.54;100239.88;5054683;28;20095;-91
2022/07/13 10:46:59;;;;;;;4.18;1.58;;;;;;;27.20;40.86;100235.47;5051400;28;20041;-81
2022/07/13 10:49:30;;;;;;;7.72;2.10;;;;;;;27.37;39.37;100237.03;5050831;28;20036;-80
2022/07/13 10:51:57;;;;;;;21.70;2.58;;;;;;;27.61;40.31;100237.88;5049942;28;20037;-77
2022/07/13 10:54:23;;;;;;;5.03;2.20;;;;;;;27.52;40.75;100240.91;5048927;28;20158;-77
2022/07/13 10:57:11;;;;;;;2.83;1.70;;;;;;;27.30;40.70;100237.69;5049902;28;20116;-81
2022/07/13 10:59:47;;;;;;;7.47;2.05;;;;;;;27.47;40.93;100238.41;5056873;28;20040;-81
2022/07/13 11:02:47;;;;;;;5.43;1.83;;;;;;;27.24;41.68;100239.16;5054269;28;20055;-86
2022/07/13 11:05:13;;;;;;;3.83;1.98;;;;;;;27.16;42.09;100232.59;5051675;28;20049;-87
2022/07/13 11:07:41;;;;;;;5.72;3.20;;;;;;;27.37;41.67;100232.25;5054099;28;20028;-87
2022/07/13 11:10:28;;;;;;;7.80;2.30;;;;;;;27.43;41.45;100248.72;5054196;28;20021;-85
2022/07/13 11:13:01;;;;;;;4.63;2.15;;;;;;;27.68;41.23;100234.41;5049272;28;20037;-78
2022/07/13 11:15:56;;;;;;;4.85;1.85;;;;;;;27.60;40.90;100241.88;5047242;28;20526;-78
2022/07/13 11:18:24;;;;;;;33.30;3.80;;;;;;;27.65;40.25;100244.34;5046133;28;20043;-79
2022/07/13 11:20:57;;;;;;;4.90;1.73;;;;;;;27.73;40.79;100234.91;5048498;28;20669;-78
2022/07/13 11:26:19;;;;;;;6.82;1.55;;;;;;;27.47;41.49;100235.59;5048892;28;20095;-78
2022/07/13 11:28:51;;;;;;;2.78;1.65;;;;;;;27.42;40.88;100244.31;5048560;28;20052;-77
2022/07/13 11:31:16;;;;;;;6.55;2.47;;;;;;;27.28;42.81;100245.63;5050690;28;20037;-93
2022/07/13 11:33:49;;;;;;;4.70;2.72;;;;;;;27.04;42.79;100251.13;5053657;28;20460;-92
2022/07/13 11:36:24;;;;;;;2.70;1.40;;;;;;;27.15;42.79;100245.78;5050390;28;20392;-79